Jason Harvey

Recruteur - Leicester City
25 Nov 2027
Jeudi
Processus

Personnalité

Adaptabilité (19) Ambition (1) Controverse (7) Loyauté (1) Pression (10) Professionnalisme (3) Sportivité (16) Tempérament (6)

Profil

Style d'entraînement Démocratique
Diplôme National B
Détermination 7
Gestion des joueurs 11
Motivation 8
Discipline 9
Satisfaction professionnelle
91%
Fatigue
0%
Rôle Recruteur
Salaire 60.0K p/s
Contrat 14.03.2030

Performance

Comportement Bon
Efficacité de l'entraînement
32%
Développement des joueurs
60%
Prévention des blessures
35%
Mise en place tactique
50%

Événements récents

A participé à une réunion de recrutement 7j
A observé un match 7j
A participé à une réunion de recrutement 14j
A observé un match 14j
A observé un match 14j
A participé à une réunion de recrutement 21j
A observé un match 21j
A observé un match 21j

Suivi en cours

86
Joueur Club Statut Capacité Confiance Observé Dernière observation Dernier vote
Keagan Phiri Platinum Stars Actif 108 / 120 40% 3 28.05.2027 -
Caleb Yirenkyi Coventry City Actif 140 / 140 40% 1 28.05.2027 -
Ibrahim Maza Bayer Leverkusen Actif 147 / 146 40% 3 26.05.2027 -
Daniel Kelly Oxford United Actif 105 / 118 40% 1 26.05.2027 -
Sascha Britschgi Padova Actif 118 / 123 40% 1 26.05.2027 -
Christos Mouzakitis Hull City Actif 139 / 142 40% 2 24.05.2027 -
Pietro Reggiori Pro Patria Actif 87 / 86 40% 1 20.05.2027 -
Riley Owen Trento Actif 106 / 114 40% 3 17.05.2027 -
Dylan Lawlor Cardiff City Perdu 118 / 110 40% 2 17.05.2027 -
Yussif Saidu Zaragoza Actif 118 / 128 40% 2 16.05.2027 -
Gonçalo Oliveira Benfica Actif 109 / 124 40% 1 16.05.2027 -
Leandro Martins Benfica Actif 97 / 88 40% 4 13.05.2027 -
Matías Gómez Granada Actif 112 / 124 40% 1 13.05.2027 -
Matvey Kislyak CSKA Moscow Actif 142 / 157 40% 4 12.05.2027 -
Daniel Dennis Ikorodu City Actif 94 / 91 40% 1 12.05.2027 -
Adam Bakoune Ospitaletto Actif 96 / 113 40% 1 12.05.2027 -
Davide Bartesaghi AC Milan Actif 129 / 133 40% 2 11.05.2027 -
Joel McGregor Swindon Town Actif 91 / 103 40% 1 09.05.2027 -
Jofre Torrents Ajax Actif 125 / 134 40% 2 08.05.2027 -
Kazunari Kita Real Sociedad Actif 97 / 114 40% 2 08.05.2027 -
Christ Inao Oulaï Fiorentina Actif 130 / 143 40% 1 08.05.2027 -
Hlompho Lorch Ajax Cape Town Actif 106 / 100 40% 1 04.05.2027 -
Juan Giménez Celta Actif 122 / 124 40% 1 30.04.2027 -
Zane Albarus Cambridge United Actif 87 / 100 40% 1 30.04.2027 -
Johan Manzambi Newcastle United Actif 147 / 138 40% 1 29.04.2027 -
Gopolang Taunyane CR Belouizdad Actif 105 / 95 40% 1 23.04.2027 -
Rocco Vata Watford Actif 126 / 138 40% 3 29.12.2026 -
Chineme Chinonso Ikorodu City Actif 91 / 100 40% 3 29.12.2026 -
Senny Mayulu Paris Saint-Germain Actif 146 / 156 40% 1 28.12.2026 -
Lwanda Mbanjwa Maritzburg United Actif 82 / 107 40% 4 25.12.2026 -
Rayan Bournemouth Actif 142 / 139 40% 2 25.12.2026 -
Nicolás Fernández Mercau Shakhtar Actif 123 / 127 40% 3 24.12.2026 -
Jonás Luna Santa Clara Actif 111 / 124 40% 2 24.12.2026 -
Quinten Timber Crystal Palace Actif 145 / 152 40% 2 24.12.2026 -
Aaron Hickey Brentford Actif 137 / 150 40% 1 24.12.2026 -
Óscar Mingueza Crystal Palace Actif 154 / 145 40% 3 20.12.2026 -
Shea Charles Southampton Actif 134 / 138 40% 2 20.12.2026 -
Lewis Gibson Preston Actif 133 / 131 40% 1 20.12.2026 -
Florentino Luís Ipswich Town Actif 148 / 135 40% 1 18.12.2026 -
Jake O'Brien Everton Actif 150 / 137 40% 1 18.12.2026 -
James Garner Everton Actif 143 / 139 40% 2 15.12.2026 -
Luke McNally Bristol City Actif 129 / 137 40% 1 15.12.2026 -
Adrien Truffert Bournemouth Actif 147 / 138 40% 3 14.12.2026 -
Anel Ahmedhodžić Burnley Actif 133 / 122 40% 1 14.12.2026 -
Christian Krasnodar Actif 137 / 139 40% 2 13.12.2026 -
Michael Kayode Brentford Actif 144 / 141 40% 1 13.12.2026 -
Max Bird Birmingham Actif 129 / 123 40% 2 12.12.2026 -
Dara O'Shea Ipswich Town Actif 141 / 143 40% 1 12.12.2026 -
Derry Murkin Derby County Actif 129 / 139 40% 2 09.12.2026 -
Juanlu Bournemouth Actif 151 / 158 40% 1 09.12.2026 -
Will Lankshear Middlesbrough Actif 131 / 127 40% 2 08.12.2026 -
Dom Ballard Leyton Orient Actif 120 / 113 40% 3 07.12.2026 -
Thomas Waddingham Portsmouth Actif 101 / 100 40% 1 07.12.2026 -
Nicolas Madsen Queens Park Rangers Actif 129 / 137 40% 1 05.12.2026 -
Japhet Tanganga Sheffield United Actif 133 / 124 40% 1 05.12.2026 -
Assane Diao Lazio Actif 140 / 145 40% 2 04.12.2026 -
Matías Fernández-Pardo Newcastle United Actif 144 / 149 40% 1 04.12.2026 -
Tyler Adams Bournemouth Actif 147 / 140 40% 2 03.12.2026 -
Jordan Beyer Burnley Actif 127 / 140 40% 1 03.12.2026 -
Conrad Wallem Austria Wien Actif 129 / 139 40% 3 01.12.2026 -
Lukáš Červ Viktoria Plzen Actif 120 / 121 40% 2 29.11.2026 -
Marlon Gomes Shakhtar Actif 129 / 145 40% 1 29.11.2026 -
Iwan Morgan Grimsby Town Actif 106 / 120 40% 1 27.11.2026 -
Ousmane Diomande Nottingham Forest Actif 149 / 160 40% 1 24.11.2026 -
Japhet Sery Larsen Philadelphia Union Actif 114 / 135 40% 1 24.11.2026 -
Endrick Real Madrid Actif 149 / 154 40% 1 20.11.2026 -
Adama Goïta Remo Stars Actif 94 / 100 40% 1 20.11.2026 -
Noah Sadiki Sunderland Actif 141 / 137 40% 1 12.11.2026 -
Bosun Lawal Stoke City Actif 123 / 135 40% 1 12.11.2026 -
Bryan Ramírez FC Cincinnati Actif 129 / 126 40% 2 10.11.2026 -
Kimito Nono Sanfrecce Hiroshima Actif 132 / 133 40% 1 10.11.2026 -
Juan Manuel Sanabria Real Salt Lake Actif 134 / 140 40% 2 04.11.2026 -
Anton Stach Leeds United Actif 156 / 158 40% 2 04.11.2026 -
Ezekiel Kwame Alladoh Philadelphia Union Actif 110 / 104 40% 1 01.11.2026 -
Ilyas Ansah Hull City Actif 120 / 138 40% 1 01.11.2026 -
Miloš Jovičić Zabbar St. Patrick Actif 95 / 87 40% 1 25.10.2026 -
Ruben Ramos LA Galaxy Actif 84 / 90 40% 1 25.10.2026 -
Maren Kefas Plateau United Actif 85 / 87 40% 2 21.10.2026 -
Youssoufa Moukoko FC Copenhagen Actif 135 / 136 40% 2 18.10.2026 -
Kristian Fletcher FC Cincinnati Actif 96 / 106 40% 1 18.10.2026 -
Mateus Mané Manchester United Actif 122 / 136 40% 1 16.10.2026 -
Archie Goodwin Charlotte Football Club Actif 100 / 110 40% 1 09.10.2026 -
Nectar Triantis Minnesota United FC Actif 140 / 114 40% 1 08.10.2026 -
Yehor Yarmoliuk Brentford Actif 153 / 155 40% 1 06.10.2026 -
Jaka Bijol Leeds United Actif 143 / 158 40% 1 09.09.2026 -
Adalberto Carrasquilla Pumas UNAM Actif 138 / 141 40% 1 08.09.2026 -